Time;durP1;ratioP1;P1;durP2;ratioP2;P2;SDS_P1;SDS_P2;PMS_P1;PMS_P2;Temp;Humidity;BMP_temperature;BMP_pressure;BME280_temperature;BME280_humidity;BME280_pressure;Samples;Min_cycle;Max_cycle;Signal;HPM_P1;HPM_P2
2023/12/30 00:00:22;;;;;;;21.42;19.15;;;;;;;3.00;73.12;95232.69;5138433;27;20214;-71
2023/12/30 00:02:57;;;;;;;19.70;17.80;;;;;;;2.96;72.68;95226.22;5137430;27;20187;-71
2023/12/30 00:05:25;;;;;;;23.63;21.20;;;;;;;2.99;73.33;95234.59;5137681;27;20202;-71
2023/12/30 00:07:52;;;;;;;23.65;21.25;;;;;;;3.01;72.84;95235.09;5136802;27;20321;-71
2023/12/30 00:10:19;;;;;;;21.63;19.33;;;;;;;2.92;73.11;95238.84;5138285;27;20195;-71
2023/12/30 00:12:48;;;;;;;22.20;20.08;;;;;;;2.75;73.33;95233.94;5137047;27;20183;-71
2023/12/30 00:15:17;;;;;;;20.77;18.77;;;;;;;2.71;73.84;95236.47;5136866;27;20214;-71
2023/12/30 00:17:46;;;;;;;21.83;19.73;;;;;;;2.65;73.56;95234.94;5137326;27;20698;-71
2023/12/30 00:20:15;;;;;;;21.63;19.48;;;;;;;2.51;74.02;95232.19;5137475;27;20202;-71
2023/12/30 00:22:45;;;;;;;22.73;20.60;;;;;;;2.49;74.15;95233.59;5136529;27;20298;-71
2023/12/30 00:25:16;;;;;;;22.90;20.63;;;;;;;2.54;74.17;95239.75;5136651;27;20203;-71
2023/12/30 00:27:43;;;;;;;23.35;21.05;;;;;;;2.61;74.77;95237.47;5137114;27;20219;-71
2023/12/30 00:30:14;;;;;;;24.33;21.88;;;;;;;2.57;73.79;95236.41;5120012;27;20199;-71
2023/12/30 00:32:41;;;;;;;23.73;21.45;;;;;;;2.43;74.47;95243.72;5137127;27;20199;-71
2023/12/30 00:35:10;;;;;;;23.98;21.10;;;;;;;2.34;74.56;95234.63;5136458;27;20195;-71
2023/12/30 00:37:40;;;;;;;24.30;21.83;;;;;;;2.36;74.59;95238.69;5136436;27;20202;-72
2023/12/30 00:40:13;;;;;;;24.13;21.85;;;;;;;2.39;74.38;95240.00;5136473;27;20213;-72
2023/12/30 00:42:41;;;;;;;24.33;22.13;;;;;;;2.31;74.92;95241.47;5137428;27;20199;-71
2023/12/30 00:45:17;;;;;;;23.88;21.55;;;;;;;2.32;74.45;95248.53;5136203;27;20248;-72
2023/12/30 00:47:45;;;;;;;24.23;21.77;;;;;;;2.15;74.61;95251.81;5136146;27;20211;-72
2023/12/30 00:50:13;;;;;;;25.13;22.70;;;;;;;2.06;74.72;95252.75;5136447;27;20199;-72
2023/12/30 00:52:41;;;;;;;24.33;22.05;;;;;;;2.03;74.81;95245.97;5136582;27;20213;-71
2023/12/30 00:55:10;;;;;;;25.10;22.67;;;;;;;2.08;75.11;95248.63;5136561;27;20244;-71
2023/12/30 00:57:39;;;;;;;25.05;22.75;;;;;;;2.18;74.60;95242.25;5136100;27;20199;-72
2023/12/30 01:00:08;;;;;;;24.98;22.48;;;;;;;2.22;74.81;95248.72;5136649;27;20195;-72
2023/12/30 01:02:37;;;;;;;24.55;22.35;;;;;;;2.19;74.28;95243.84;5136740;27;20263;-72
2023/12/30 01:05:08;;;;;;;23.90;21.60;;;;;;;2.26;74.92;95249.72;5136822;27;20306;-72
2023/12/30 01:07:35;;;;;;;25.60;23.05;;;;;;;2.32;74.37;95258.63;5136934;27;20265;-72
2023/12/30 01:10:09;;;;;;;26.67;24.20;;;;;;;2.33;74.31;95249.38;5140094;27;20255;-71
2023/12/30 01:12:39;;;;;;;28.85;25.92;;;;;;;2.37;75.25;95247.66;5139630;27;20194;-71
2023/12/30 01:15:07;;;;;;;28.48;25.85;;;;;;;2.43;75.28;95257.34;5139332;27;20182;-71
2023/12/30 01:17:37;;;;;;;27.98;25.35;;;;;;;2.41;74.63;95254.94;5139040;27;20614;-71
2023/12/30 01:20:05;;;;;;;28.90;26.10;;;;;;;2.24;74.40;95259.28;5139588;27;20250;-71
2023/12/30 01:22:34;;;;;;;28.92;26.23;;;;;;;2.04;74.47;95252.25;5139136;27;20194;-71
2023/12/30 01:25:01;;;;;;;28.48;25.80;;;;;;;2.00;74.96;95254.75;5138706;27;20198;-71
2023/12/30 01:27:31;;;;;;;30.15;27.13;;;;;;;2.03;75.56;95254.13;5139507;27;20247;-71
2023/12/30 01:30:00;;;;;;;30.77;27.77;;;;;;;2.09;75.17;95250.25;5139825;27;20198;-71
2023/12/30 01:32:29;;;;;;;31.30;28.35;;;;;;;2.06;75.00;95250.84;5138974;27;20194;-71
2023/12/30 01:34:57;;;;;;;30.00;27.08;;;;;;;2.05;75.43;95249.22;5139516;27;20190;-72
2023/12/30 01:37:24;;;;;;;28.85;26.13;;;;;;;2.05;75.56;95241.06;5138946;27;20254;-72
2023/12/30 01:39:53;;;;;;;28.73;25.88;;;;;;;2.08;75.37;95237.75;5139077;27;20197;-72
2023/12/30 01:42:21;;;;;;;29.45;26.55;;;;;;;2.07;74.60;95227.16;5139360;27;20186;-72
2023/12/30 01:44:59;;;;;;;28.60;25.80;;;;;;;2.10;75.21;95245.63;5139695;27;20247;-73
2023/12/30 01:47:34;;;;;;;24.33;22.05;;;;;;;2.17;75.48;95240.59;5137787;27;20290;-72
2023/12/30 01:50:08;;;;;;;22.70;20.40;;;;;;;2.20;75.54;95234.56;5138807;27;20599;-72
2023/12/30 01:52:37;;;;;;;22.30;20.25;;;;;;;2.17;74.93;95229.72;5138177;27;20205;-72
2023/12/30 01:55:08;;;;;;;22.27;20.13;;;;;;;2.14;74.75;95225.69;5138250;27;20235;-72
2023/12/30 01:57:38;;;;;;;20.63;18.73;;;;;;;2.17;74.52;95222.38;5139433;27;20205;-72
2023/12/30 02:00:08;;;;;;;20.30;18.45;;;;;;;2.21;75.25;95221.78;5137738;27;20298;-72
2023/12/30 02:02:36;;;;;;;21.88;19.90;;;;;;;2.17;74.79;95224.28;5138265;27;20213;-72
2023/12/30 02:05:04;;;;;;;27.27;24.63;;;;;;;1.99;74.02;95223.19;5139163;27;20182;-72
2023/12/30 02:07:31;;;;;;;26.95;24.38;;;;;;;1.92;74.14;95220.88;5121395;28;20244;-72
2023/12/30 02:09:58;;;;;;;25.63;23.33;;;;;;;1.85;74.06;95225.03;5121388;28;20250;-72
2023/12/30 02:15:14;;;;;;;25.23;22.98;;;;;;;1.87;74.90;95220.13;5050959;28;20193;-72
2023/12/30 02:17:42;;;;;;;24.52;22.08;;;;;;;1.92;75.40;95217.31;5050873;28;20254;-72
2023/12/30 02:20:10;;;;;;;23.20;21.05;;;;;;;1.94;75.49;95220.56;5051013;28;20206;-72
2023/12/30 02:22:45;;;;;;;27.25;24.83;;;;;;;1.92;75.48;95223.59;5051866;28;20242;-72
2023/12/30 02:25:13;;;;;;;26.08;23.75;;;;;;;1.81;74.81;95216.63;5051042;28;20242;-71
2023/12/30 02:27:43;;;;;;;25.00;22.70;;;;;;;1.66;74.94;95220.38;5050937;28;20213;-72
2023/12/30 02:30:14;;;;;;;23.65;21.45;;;;;;;1.71;75.79;95222.25;5035014;28;20216;-72
2023/12/30 02:32:42;;;;;;;23.33;21.23;;;;;;;1.61;75.08;95214.22;5050660;28;20209;-72
2023/12/30 02:35:09;;;;;;;22.98;20.88;;;;;;;1.62;75.59;95224.78;5051217;28;20198;-72
2023/12/30 02:37:36;;;;;;;22.45;20.35;;;;;;;1.66;75.07;95217.66;5050832;28;20198;-72
2023/12/30 02:40:06;;;;;;;21.90;19.80;;;;;;;1.66;75.50;95219.56;5051354;28;20202;-72
2023/12/30 02:42:33;;;;;;;22.25;20.27;;;;;;;1.72;75.84;95228.50;5051396;28;20198;-71
2023/12/30 02:45:00;;;;;;;21.77;19.88;;;;;;;1.71;75.49;95218.69;5053229;28;20186;-72
2023/12/30 02:47:27;;;;;;;20.58;18.60;;;;;;;1.77;75.84;95220.25;5054663;28;20234;-72
2023/12/30 02:49:55;;;;;;;20.90;19.00;;;;;;;1.78;75.47;95228.13;5054660;28;20270;-72
2023/12/30 02:52:22;;;;;;;19.52;17.73;;;;;;;1.79;75.22;95223.50;5054449;28;20210;-72
2023/12/30 02:54:49;;;;;;;19.58;17.75;;;;;;;1.79;74.99;95220.78;5054696;28;20205;-72
2023/12/30 02:57:19;;;;;;;22.10;20.08;;;;;;;1.71;75.11;95216.81;5054154;28;20254;-72
2023/12/30 02:59:46;;;;;;;21.58;19.58;;;;;;;1.66;74.94;95216.88;5054167;28;20214;-72
2023/12/30 03:02:13;;;;;;;20.60;18.67;;;;;;;1.64;75.32;95222.59;5054517;28;20213;-71
2023/12/30 03:04:40;;;;;;;22.23;20.08;;;;;;;1.56;74.84;95209.66;5054658;28;20225;-72
2023/12/30 03:07:08;;;;;;;22.45;20.35;;;;;;;1.55;75.69;95212.66;5043561;27;20229;-72
2023/12/30 03:09:35;;;;;;;22.15;20.08;;;;;;;1.58;75.56;95203.94;5037104;28;20237;-72
2023/12/30 03:12:03;;;;;;;22.15;20.15;;;;;;;1.51;75.22;95212.44;5036591;28;20252;-72
2023/12/30 03:14:33;;;;;;;22.00;20.10;;;;;;;1.54;75.55;95214.59;5037248;28;20272;-72
2023/12/30 03:17:04;;;;;;;22.08;20.00;;;;;;;1.44;75.44;95215.50;5037438;28;20567;-72
2023/12/30 03:19:31;;;;;;;23.30;21.20;;;;;;;1.33;75.23;95205.06;5037610;28;20201;-72
2023/12/30 03:21:58;;;;;;;23.42;21.23;;;;;;;1.34;75.77;95207.47;5036964;28;20246;-72
2023/12/30 03:24:27;;;;;;;22.67;20.58;;;;;;;1.42;75.83;95209.56;5037461;28;20193;-72
2023/12/30 03:26:56;;;;;;;22.17;20.17;;;;;;;1.37;75.52;95217.78;5037603;28;20213;-72
2023/12/30 03:29:23;;;;;;;23.92;21.73;;;;;;;1.44;76.18;95214.72;5036746;28;20776;-72
2023/12/30 03:31:56;;;;;;;23.05;20.98;;;;;;;1.49;75.93;95216.53;5037416;28;20233;-72
2023/12/30 03:34:24;;;;;;;22.38;20.35;;;;;;;1.55;74.91;95215.38;5036715;28;20190;-71
2023/12/30 03:36:52;;;;;;;23.13;20.83;;;;;;;1.55;75.24;95221.63;5036994;28;20198;-71
2023/12/30 03:39:19;;;;;;;22.15;20.15;;;;;;;1.57;75.23;95224.06;5037399;28;20186;-72
2023/12/30 03:41:49;;;;;;;22.42;20.35;;;;;;;1.56;74.91;95227.88;5037295;28;20209;-72
2023/12/30 03:44:16;;;;;;;21.88;19.77;;;;;;;1.60;74.66;95221.56;5036846;28;20301;-72
2023/12/30 03:46:46;;;;;;;20.20;18.20;;;;;;;1.61;74.52;95227.81;5037342;28;20190;-72
2023/12/30 03:49:17;;;;;;;18.85;16.95;;;;;;;1.60;74.54;95228.94;5037482;28;20232;-72
2023/12/30 03:51:46;;;;;;;19.17;17.48;;;;;;;1.61;74.93;95234.06;5037062;28;20278;-72
2023/12/30 03:54:15;;;;;;;20.30;18.40;;;;;;;1.64;74.29;95240.84;5036983;28;20210;-72
2023/12/30 03:56:47;;;;;;;21.67;19.58;;;;;;;1.65;74.45;95235.09;5054262;28;20179;-72
2023/12/30 03:59:16;;;;;;;21.20;19.30;;;;;;;1.64;74.45;95238.13;5037410;28;20186;-72
2023/12/30 04:01:49;;;;;;;18.90;17.10;;;;;;;1.62;74.89;95232.16;5036527;28;20194;-72
2023/12/30 04:04:18;;;;;;;20.23;18.30;;;;;;;1.65;74.60;95232.38;5036545;28;20254;-72
2023/12/30 04:06:46;;;;;;;20.02;18.08;;;;;;;1.65;74.69;95237.81;5036770;28;20560;-72
2023/12/30 04:09:13;;;;;;;20.17;18.40;;;;;;;1.66;74.74;95235.91;5036607;28;20237;-72
2023/12/30 04:11:40;;;;;;;21.50;19.40;;;;;;;1.69;74.70;95229.88;5036319;28;20197;-72
2023/12/30 04:14:07;;;;;;;23.08;20.73;;;;;;;1.57;74.76;95234.94;5037145;28;20202;-72
2023/12/30 04:16:37;;;;;;;24.63;22.23;;;;;;;1.50;74.90;95234.50;5037157;28;20202;-72
2023/12/30 04:19:04;;;;;;;23.88;21.63;;;;;;;1.44;74.80;95237.25;5036819;28;20183;-72
2023/12/30 04:21:33;;;;;;;23.02;20.88;;;;;;;1.46;75.00;95241.63;5036532;28;20212;-71
2023/12/30 04:24:02;;;;;;;23.75;21.45;;;;;;;1.47;75.31;95230.44;5036942;28;20197;-72
2023/12/30 04:26:30;;;;;;;22.65;20.65;;;;;;;1.48;75.02;95229.31;5036414;28;20297;-72
2023/12/30 04:28:58;;;;;;;23.73;21.35;;;;;;;1.48;75.19;95234.75;5036411;28;20278;-72
2023/12/30 04:31:25;;;;;;;23.63;21.33;;;;;;;1.43;75.07;95235.66;5035849;28;20205;-72
2023/12/30 04:33:52;;;;;;;24.58;22.25;;;;;;;1.45;75.13;95240.78;5036909;28;20198;-72
2023/12/30 04:36:20;;;;;;;25.02;22.63;;;;;;;1.45;74.90;95238.06;5036602;28;20205;-72
2023/12/30 04:38:51;;;;;;;23.90;21.70;;;;;;;1.42;74.71;95241.38;5035675;28;20197;-72
2023/12/30 04:41:20;;;;;;;22.88;20.63;;;;;;;1.44;74.72;95244.59;5035950;28;20186;-72
2023/12/30 04:43:48;;;;;;;23.00;20.90;;;;;;;1.44;74.76;95245.41;5035979;28;20233;-72
2023/12/30 04:46:15;;;;;;;26.25;23.75;;;;;;;1.47;75.02;95237.78;5036099;28;20237;-72
2023/12/30 04:48:44;;;;;;;25.83;23.35;;;;;;;1.48;75.45;95244.84;5036512;28;20249;-72
2023/12/30 04:51:13;;;;;;;27.42;24.83;;;;;;;1.52;75.24;95257.53;5035528;28;20210;-72
2023/12/30 04:53:41;;;;;;;26.30;24.00;;;;;;;1.48;75.27;95259.22;5036094;28;20246;-72
2023/12/30 04:56:15;;;;;;;27.30;24.70;;;;;;;1.43;75.22;95260.09;5035672;28;20257;-72
2023/12/30 04:58:42;;;;;;;30.13;27.13;;;;;;;1.44;75.31;95260.91;5036031;28;20201;-72
2023/12/30 05:01:12;;;;;;;29.55;26.75;;;;;;;1.43;75.27;95262.03;5036108;28;20219;-72
2023/12/30 05:03:44;;;;;;;29.50;26.70;;;;;;;1.40;75.34;95265.31;5035487;28;20645;-72
2023/12/30 05:06:21;;;;;;;30.55;27.60;;;;;;;1.38;75.12;95271.06;5033792;27;20214;-72
2023/12/30 05:08:48;;;;;;;30.02;27.15;;;;;;;1.38;75.35;95271.06;5034729;28;20672;-73
2023/12/30 05:11:19;;;;;;;30.15;27.27;;;;;;;1.40;75.37;95271.56;5035475;28;20201;-73
2023/12/30 05:13:48;;;;;;;31.80;28.73;;;;;;;1.42;75.82;95266.66;5036107;28;20198;-72
2023/12/30 05:16:16;;;;;;;31.63;28.63;;;;;;;1.43;75.42;95262.81;5036256;28;20247;-72
2023/12/30 05:18:43;;;;;;;32.72;29.42;;;;;;;1.46;76.04;95256.00;5035855;28;20190;-72
2023/12/30 05:21:16;;;;;;;33.45;30.20;;;;;;;1.52;76.25;95256.75;5035575;28;20193;-72
2023/12/30 05:23:44;;;;;;;32.10;28.90;;;;;;;1.51;75.59;95269.53;5035933;28;20204;-72
2023/12/30 05:26:13;;;;;;;31.80;28.70;;;;;;;1.32;75.49;95265.97;5036121;28;20198;-72
2023/12/30 05:28:42;;;;;;;32.60;29.65;;;;;;;1.14;75.54;95262.88;5034126;28;20228;-72
2023/12/30 05:31:08;;;;;;;31.63;28.77;;;;;;;1.06;75.95;95265.44;5035201;28;20198;-72
2023/12/30 05:33:35;;;;;;;33.45;30.25;;;;;;;0.99;75.90;95260.34;5035752;28;20242;-72
2023/12/30 05:36:04;;;;;;;34.63;31.25;;;;;;;0.98;76.69;95263.31;5035930;28;20246;-72
2023/12/30 05:38:31;;;;;;;33.38;30.05;;;;;;;1.05;77.08;95264.59;5034909;28;20212;-72
2023/12/30 05:40:58;;;;;;;32.70;29.80;;;;;;;1.07;76.21;95267.84;5035677;28;20258;-72
2023/12/30 05:43:27;;;;;;;32.65;29.55;;;;;;;1.06;76.27;95266.25;5035604;28;20190;-73
2023/12/30 05:45:56;;;;;;;32.78;29.83;;;;;;;1.06;76.51;95265.44;5053311;28;20201;-73
2023/12/30 05:48:23;;;;;;;32.58;29.48;;;;;;;1.13;76.37;95274.06;5034901;28;20198;-72
2023/12/30 05:50:50;;;;;;;33.75;30.55;;;;;;;1.07;76.94;95278.72;5034616;28;20230;-72
2023/12/30 05:53:19;;;;;;;34.35;31.15;;;;;;;0.94;76.80;95290.25;5035679;28;20215;-72
2023/12/30 05:55:48;;;;;;;33.30;30.20;;;;;;;0.90;76.89;95286.50;5035101;28;20194;-72
2023/12/30 05:58:16;;;;;;;35.15;31.85;;;;;;;0.79;76.89;95288.50;5035028;28;20258;-72
2023/12/30 06:00:45;;;;;;;33.95;30.83;;;;;;;0.80;76.88;95292.84;5034508;28;20194;-72
2023/12/30 06:03:14;;;;;;;33.97;30.80;;;;;;;0.87;77.32;95296.03;5034980;28;20201;-72
2023/12/30 06:05:44;;;;;;;43.20;39.20;;;;;;;0.89;77.03;95293.03;5034756;28;20659;-71
2023/12/30 06:08:11;;;;;;;38.72;35.33;;;;;;;0.96;77.05;95290.78;5034704;28;20725;-72
2023/12/30 06:10:42;;;;;;;39.83;36.30;;;;;;;1.05;77.32;95290.97;5034857;28;20625;-72
2023/12/30 06:13:09;;;;;;;44.85;40.58;;;;;;;1.06;77.07;95293.41;5034487;28;20633;-72
2023/12/30 06:15:38;;;;;;;44.33;39.95;;;;;;;1.05;77.53;95294.47;5034624;28;20190;-72
2023/12/30 06:18:05;;;;;;;43.13;39.20;;;;;;;1.06;78.74;95292.59;5034548;28;20202;-72
2023/12/30 06:20:36;;;;;;;42.90;38.90;;;;;;;1.11;78.27;95304.22;5036717;28;20701;-72
2023/12/30 06:23:07;;;;;;;41.03;37.13;;;;;;;1.17;78.58;95303.06;5038543;28;20214;-72
2023/12/30 06:25:34;;;;;;;43.78;39.55;;;;;;;1.17;78.40;95294.13;5038946;28;20595;-71
2023/12/30 06:28:04;;;;;;;43.13;38.88;;;;;;;1.16;78.00;95309.63;5038589;28;20202;-71
2023/12/30 06:30:35;;;;;;;42.90;38.70;;;;;;;1.09;78.45;95302.88;5038055;28;20351;-71
2023/12/30 06:33:06;;;;;;;40.38;36.65;;;;;;;1.13;78.32;95315.63;5037528;28;20212;-71
2023/12/30 06:35:38;;;;;;;42.65;38.65;;;;;;;1.18;78.30;95312.03;5038701;28;20544;-71
2023/12/30 06:38:05;;;;;;;40.33;36.67;;;;;;;1.20;78.38;95315.28;5037752;28;20524;-71
2023/12/30 06:40:33;;;;;;;41.92;38.03;;;;;;;1.12;77.94;95313.16;5037618;28;20231;-71
2023/12/30 06:43:00;;;;;;;43.60;39.60;;;;;;;1.13;78.41;95317.53;5037703;28;20296;-71
2023/12/30 06:45:27;;;;;;;42.53;38.63;;;;;;;1.16;78.15;95319.63;5038444;28;20209;-69
2023/12/30 06:47:57;;;;;;;43.28;39.47;;;;;;;1.17;77.88;95324.81;5036810;28;20466;-71
2023/12/30 06:50:24;;;;;;;42.13;38.28;;;;;;;1.19;78.49;95324.50;5037494;28;20236;-73
2023/12/30 06:52:55;;;;;;;40.58;36.90;;;;;;;1.24;77.87;95321.75;5037391;28;20212;-73
2023/12/30 06:55:22;;;;;;;41.50;37.45;;;;;;;1.27;77.83;95337.50;5038156;28;20205;-73
2023/12/30 06:57:49;;;;;;;37.58;33.58;;;;;;;1.29;77.87;95326.31;5037893;28;20209;-71
2023/12/30 07:00:19;;;;;;;37.15;33.35;;;;;;;1.24;77.84;95321.75;5054976;28;20189;-70
2023/12/30 07:02:46;;;;;;;38.13;34.00;;;;;;;1.22;78.01;95329.38;5037387;28;20213;-71
2023/12/30 07:05:13;;;;;;;37.65;33.75;;;;;;;1.19;78.00;95340.81;5037849;28;20270;-71
2023/12/30 07:07:40;;;;;;;41.03;36.97;;;;;;;1.10;77.55;95337.13;5036042;28;20729;-71
2023/12/30 07:10:12;;;;;;;42.30;38.00;;;;;;;1.09;78.21;95338.19;5038468;28;20209;-71
2023/12/30 07:12:40;;;;;;;50.47;45.83;;;;;;;1.16;77.99;95341.38;5038454;28;20297;-71
2023/12/30 07:15:09;;;;;;;51.45;46.65;;;;;;;1.27;78.22;95344.81;5038727;28;20205;-71
2023/12/30 07:17:38;;;;;;;44.78;40.35;;;;;;;1.36;77.99;95353.97;5037894;28;20204;-72
2023/12/30 07:20:08;;;;;;;46.38;41.75;;;;;;;1.44;77.81;95343.25;5037023;28;20206;-71
2023/12/30 07:22:36;;;;;;;45.67;41.28;;;;;;;1.53;77.47;95345.38;5038270;28;20198;-71
2023/12/30 07:25:05;;;;;;;53.83;49.13;;;;;;;1.57;77.20;95346.41;5037349;28;20234;-72
2023/12/30 07:27:35;;;;;;;57.65;52.40;;;;;;;1.65;77.30;95349.28;5037726;28;20254;-72
2023/12/30 07:30:04;;;;;;;52.67;47.83;;;;;;;1.76;77.45;95349.19;5036571;28;20225;-72
2023/12/30 07:32:34;;;;;;;49.90;45.53;;;;;;;1.92;77.54;95350.59;5037787;28;20201;-72
2023/12/30 07:35:03;;;;;;;48.65;44.17;;;;;;;2.04;77.42;95351.00;5037576;28;20198;-72
2023/12/30 07:37:34;;;;;;;48.13;43.75;;;;;;;2.15;77.64;95352.50;5037222;28;20197;-73
2023/12/30 07:40:09;;;;;;;47.88;43.35;;;;;;;2.26;76.69;95350.44;5039468;28;20194;-71
2023/12/30 07:42:40;;;;;;;49.38;44.78;;;;;;;2.36;76.72;95346.75;5058885;28;20190;-71
2023/12/30 07:45:12;;;;;;;51.25;46.50;;;;;;;2.52;77.14;95355.53;5041900;28;20202;-72
2023/12/30 07:47:42;;;;;;;49.20;44.58;;;;;;;2.63;76.38;95357.78;5037658;28;20262;-71
2023/12/30 07:50:10;;;;;;;49.92;45.05;;;;;;;2.79;76.76;95357.53;5036547;28;20229;-71
2023/12/30 07:52:40;;;;;;;49.03;44.25;;;;;;;2.95;76.69;95358.13;5054338;28;20554;-69
2023/12/30 07:55:08;;;;;;;46.75;42.35;;;;;;;3.15;77.10;95352.31;5037127;28;20193;-71
2023/12/30 07:57:37;;;;;;;42.67;38.80;;;;;;;3.34;76.01;95354.97;5037273;28;20198;-71
2023/12/30 08:00:12;;;;;;;37.58;34.05;;;;;;;3.51;76.12;95357.94;5036402;28;20246;-70
2023/12/30 08:02:40;;;;;;;36.97;33.60;;;;;;;3.59;75.40;95360.00;5036619;28;20198;-71
2023/12/30 08:05:09;;;;;;;37.47;34.00;;;;;;;3.67;75.85;95355.75;5037164;28;20190;-71
2023/12/30 08:07:37;;;;;;;38.63;35.20;;;;;;;3.82;75.58;95360.13;5035642;28;20229;-71
2023/12/30 08:10:04;;;;;;;37.08;33.78;;;;;;;4.02;75.27;95358.88;5036119;28;20665;-70
2023/12/30 08:12:31;;;;;;;38.63;35.00;;;;;;;4.13;74.72;95357.56;5036603;28;20198;-70
2023/12/30 08:14:58;;;;;;;35.05;31.95;;;;;;;4.24;74.76;95361.69;5036733;28;20589;-71
2023/12/30 08:17:28;;;;;;;36.40;33.13;;;;;;;4.41;74.66;95368.47;5036121;28;20198;-71
2023/12/30 08:19:58;;;;;;;37.17;33.67;;;;;;;4.57;73.94;95378.75;5036555;28;20539;-72
2023/12/30 08:22:25;;;;;;;36.05;32.75;;;;;;;4.69;73.32;95383.69;5036697;28;20206;-72
2023/12/30 08:24:53;;;;;;;40.75;36.75;;;;;;;4.76;73.15;95389.53;5035998;28;20219;-71
2023/12/30 08:27:24;;;;;;;39.55;35.80;;;;;;;4.86;72.70;95396.66;5036429;28;20213;-71
2023/12/30 08:29:51;;;;;;;43.88;39.90;;;;;;;4.95;72.47;95397.56;5036529;28;20217;-73
2023/12/30 08:32:18;;;;;;;43.83;39.60;;;;;;;5.06;71.97;95390.72;5036462;28;20206;-71
2023/12/30 08:34:47;;;;;;;45.80;41.47;;;;;;;5.24;72.10;95391.66;5035686;28;20201;-71
2023/12/30 08:37:14;;;;;;;45.55;41.40;;;;;;;5.40;71.66;95385.81;5053173;28;20178;-71
2023/12/30 08:39:45;;;;;;;49.45;44.92;;;;;;;5.44;71.26;95378.59;5035669;28;20722;-71
2023/12/30 08:42:16;;;;;;;52.47;47.42;;;;;;;5.55;71.30;95377.22;5035428;28;20208;-71
2023/12/30 08:44:44;;;;;;;50.22;45.63;;;;;;;5.64;70.78;95371.81;5036241;28;20618;-72
2023/12/30 08:47:11;;;;;;;47.75;43.33;;;;;;;5.74;70.81;95372.34;5036004;28;20216;-71
2023/12/30 08:49:40;;;;;;;46.03;41.67;;;;;;;5.89;71.06;95370.31;5036429;28;20263;-71
2023/12/30 08:52:09;;;;;;;43.17;39.08;;;;;;;6.01;70.49;95359.59;5035800;28;20212;-71
2023/12/30 08:54:42;;;;;;;41.35;37.53;;;;;;;6.11;70.16;95362.03;5037175;28;20262;-73
2023/12/30 08:57:11;;;;;;;39.05;35.40;;;;;;;6.34;69.85;95364.69;5036240;28;20225;-72
2023/12/30 08:59:40;;;;;;;37.63;34.22;;;;;;;6.42;69.21;95350.19;5035827;28;20546;-70
2023/12/30 09:02:07;;;;;;;37.20;33.90;;;;;;;6.51;68.66;95346.34;5035404;28;20696;-70
2023/12/30 09:04:37;;;;;;;41.55;37.70;;;;;;;6.63;68.34;95348.44;5036102;28;20205;-70
2023/12/30 09:07:04;;;;;;;43.90;39.85;;;;;;;6.71;67.69;95344.91;5033340;28;20225;-72
2023/12/30 09:09:39;;;;;;;46.92;42.55;;;;;;;6.87;68.03;95344.44;5035838;28;20202;-71
2023/12/30 09:12:06;;;;;;;50.75;46.05;;;;;;;7.02;68.01;95343.97;5036075;28;20261;-71
2023/12/30 09:14:36;;;;;;;51.03;46.35;;;;;;;7.14;67.66;95344.09;5035651;28;20197;-70
2023/12/30 09:17:06;;;;;;;49.65;45.28;;;;;;;7.26;67.31;95324.22;5035393;28;20198;-72
2023/12/30 09:19:36;;;;;;;54.20;49.38;;;;;;;7.33;66.60;95331.97;5035650;28;20250;-71
2023/12/30 09:22:07;;;;;;;52.42;47.65;;;;;;;7.33;65.75;95340.19;5035800;28;20194;-71
2023/12/30 09:24:41;;;;;;;51.38;46.63;;;;;;;7.41;65.37;95334.72;5035240;28;20197;-71
2023/12/30 09:27:09;;;;;;;49.38;44.95;;;;;;;7.59;66.06;95334.66;5035626;28;20579;-71
2023/12/30 09:29:38;;;;;;;49.38;44.88;;;;;;;7.86;65.14;95320.50;5035957;28;20258;-71
2023/12/30 09:32:07;;;;;;;43.90;39.92;;;;;;;8.03;63.80;95324.34;5035769;28;20221;-70
2023/12/30 09:34:34;;;;;;;43.97;39.83;;;;;;;8.30;63.63;95323.06;5035306;28;20201;-72
2023/12/30 09:37:01;;;;;;;41.63;37.88;;;;;;;8.47;62.60;95322.19;5035655;28;20214;-72
2023/12/30 09:39:28;;;;;;;42.75;38.72;;;;;;;8.80;62.26;95316.78;5052800;28;20182;-71
2023/12/30 09:42:00;;;;;;;42.85;38.90;;;;;;;9.02;61.88;95313.66;5035503;28;20258;-72
2023/12/30 09:44:29;;;;;;;44.22;40.15;;;;;;;9.43;61.04;95302.91;5035280;28;20524;-71
2023/12/30 09:46:59;;;;;;;45.08;40.90;;;;;;;9.50;60.15;95298.47;5035032;28;20554;-71
2023/12/30 09:49:28;;;;;;;47.13;42.80;;;;;;;9.83;58.76;95305.88;5034834;28;20193;-72
2023/12/30 09:51:59;;;;;;;49.67;45.08;;;;;;;9.84;58.35;95299.22;5052322;28;20228;-72
2023/12/30 09:54:28;;;;;;;49.58;45.05;;;;;;;9.86;58.53;95300.47;5033735;28;20289;-71
2023/12/30 09:56:57;;;;;;;50.10;45.58;;;;;;;10.16;58.17;95299.47;5035092;28;20204;-70
2023/12/30 09:59:26;;;;;;;50.70;46.10;;;;;;;10.50;57.38;95295.47;5035317;28;20201;-71
2023/12/30 10:01:55;;;;;;;50.42;45.60;;;;;;;10.72;56.96;95291.41;5035082;28;20701;-71
2023/12/30 10:04:22;;;;;;;48.97;44.17;;;;;;;10.88;55.80;95289.53;5035192;28;20194;-71
2023/12/30 10:06:50;;;;;;;48.38;43.72;;;;;;;11.12;55.94;95290.59;5034663;28;20274;-72
2023/12/30 10:09:18;;;;;;;46.40;42.25;;;;;;;11.26;54.50;95285.47;5035477;28;20194;-71
2023/12/30 10:11:46;;;;;;;47.83;43.33;;;;;;;11.37;54.24;95277.50;5034790;28;20312;-71
2023/12/30 10:14:13;;;;;;;46.42;42.17;;;;;;;11.25;54.53;95281.09;5034738;28;20246;-73
2023/12/30 10:16:42;;;;;;;46.97;42.65;;;;;;;11.14;54.71;95277.25;5035570;28;20185;-71
2023/12/30 10:19:09;;;;;;;48.40;43.97;;;;;;;10.97;54.97;95281.13;5034674;28;20242;-72
2023/12/30 10:21:38;;;;;;;50.45;45.88;;;;;;;10.83;55.36;95268.50;5035278;28;20198;-72
2023/12/30 10:24:06;;;;;;;51.50;46.70;;;;;;;10.82;54.59;95269.66;5034778;28;20589;-73
2023/12/30 10:26:33;;;;;;;51.10;46.35;;;;;;;10.69;55.19;95261.75;5034614;28;20216;-72
2023/12/30 10:29:01;;;;;;;53.28;48.38;;;;;;;10.57;55.75;95262.59;5034681;28;20570;-74
2023/12/30 10:31:28;;;;;;;53.95;48.53;;;;;;;10.45;55.90;95259.84;5034956;28;20218;-74
2023/12/30 10:33:58;;;;;;;51.90;46.88;;;;;;;10.18;56.64;95251.13;5034888;28;20694;-75
2023/12/30 10:36:27;;;;;;;53.53;48.33;;;;;;;10.04;57.06;95251.47;5035551;28;20254;-74
2023/12/30 10:38:56;;;;;;;53.13;48.03;;;;;;;9.90;57.54;95253.78;5034560;28;20210;-75
2023/12/30 10:41:23;;;;;;;51.28;46.55;;;;;;;9.83;57.98;95256.28;5035378;28;20186;-74
2023/12/30 10:43:49;;;;;;;48.92;43.97;;;;;;;9.69;57.98;95251.09;5035957;28;20647;-74
2023/12/30 10:46:19;;;;;;;47.22;42.65;;;;;;;9.67;58.84;95247.91;5035748;28;20210;-74
2023/12/30 10:48:53;;;;;;;49.08;44.22;;;;;;;9.62;59.14;95235.19;5035795;28;20221;-74
2023/12/30 10:51:26;;;;;;;46.80;42.10;;;;;;;9.57;58.75;95246.41;5034927;28;20286;-75
2023/12/30 10:54:00;;;;;;;44.90;40.50;;;;;;;9.59;59.51;95244.13;5035462;28;20294;-75
2023/12/30 10:56:30;;;;;;;40.30;36.42;;;;;;;9.67;58.60;95238.84;5035903;28;20185;-76
2023/12/30 10:59:00;;;;;;;43.53;39.13;;;;;;;9.70;58.76;95241.72;5053219;28;20262;-74
2023/12/30 11:01:29;;;;;;;43.80;39.33;;;;;;;9.71;58.61;95231.50;5035177;28;20194;-72
2023/12/30 11:03:58;;;;;;;43.60;39.35;;;;;;;9.69;57.51;95229.06;5034548;28;20255;-73
2023/12/30 11:06:31;;;;;;;42.67;38.38;;;;;;;9.70;57.83;95229.91;5034541;28;20225;-72
2023/12/30 11:09:03;;;;;;;39.88;35.97;;;;;;;9.71;58.06;95226.00;5038522;28;20189;-73
2023/12/30 11:11:31;;;;;;;42.22;38.17;;;;;;;9.73;58.37;95226.44;5037400;28;20579;-73
2023/12/30 11:13:58;;;;;;;44.90;40.38;;;;;;;9.77;58.35;95225.44;5038352;28;20294;-73
2023/12/30 11:16:26;;;;;;;46.33;41.55;;;;;;;9.94;58.48;95215.31;5038977;28;20296;-74
2023/12/30 11:18:55;;;;;;;43.22;39.13;;;;;;;10.28;57.32;95222.31;5037688;28;20247;-72
2023/12/30 11:21:37;;;;;;;42.22;38.22;;;;;;;10.78;56.10;95215.50;5037709;28;20632;-73
2023/12/30 11:24:06;;;;;;;40.97;36.97;;;;;;;11.35;54.74;95200.50;5038250;28;20190;-75
2023/12/30 11:26:36;;;;;;;41.05;36.95;;;;;;;11.94;53.38;95198.84;5037620;28;20756;-74
2023/12/30 11:29:04;;;;;;;39.97;35.92;;;;;;;12.55;52.27;95198.28;5038799;28;20198;-75
2023/12/30 11:31:31;;;;;;;38.35;34.65;;;;;;;13.36;51.10;95203.06;5038255;28;20214;-75
2023/12/30 11:33:59;;;;;;;45.47;40.85;;;;;;;14.30;47.45;95187.59;5037724;28;20201;-74